sensor_id;sensor_type;location;lat;lon;timestamp;P1;durP1;ratioP1;P2;durP2;ratioP2
2289;SDS011;1153;47.986;7.898;2022-12-13T00:01:18;28.57;;;11.67;;
2289;SDS011;1153;47.986;7.898;2022-12-13T00:03:43;29.33;;;11.77;;
2289;SDS011;1153;47.986;7.898;2022-12-13T00:06:09;29.80;;;10.67;;
2289;SDS011;1153;47.986;7.898;2022-12-13T00:08:36;24.43;;;13.10;;
2289;SDS011;1153;47.986;7.898;2022-12-13T00:11:02;28.17;;;12.57;;
2289;SDS011;1153;47.986;7.898;2022-12-13T00:13:28;24.37;;;11.50;;
2289;SDS011;1153;47.986;7.898;2022-12-13T00:15:56;33.83;;;14.37;;
2289;SDS011;1153;47.986;7.898;2022-12-13T00:18:22;37.23;;;13.70;;
2289;SDS011;1153;47.986;7.898;2022-12-13T00:20:47;42.40;;;13.57;;
2289;SDS011;1153;47.986;7.898;2022-12-13T00:23:12;26.17;;;10.33;;
2289;SDS011;1153;47.986;7.898;2022-12-13T00:25:38;27.70;;;10.93;;
2289;SDS011;1153;47.986;7.898;2022-12-13T00:28:03;43.60;;;14.00;;
2289;SDS011;1153;47.986;7.898;2022-12-13T00:30:28;35.27;;;12.83;;
2289;SDS011;1153;47.986;7.898;2022-12-13T00:32:55;24.70;;;12.90;;
2289;SDS011;1153;47.986;7.898;2022-12-13T00:35:20;38.00;;;12.20;;
2289;SDS011;1153;47.986;7.898;2022-12-13T00:37:46;31.47;;;11.77;;
2289;SDS011;1153;47.986;7.898;2022-12-13T00:40:11;19.73;;;9.77;;
2289;SDS011;1153;47.986;7.898;2022-12-13T00:42:36;27.97;;;12.00;;
2289;SDS011;1153;47.986;7.898;2022-12-13T00:45:01;25.97;;;10.63;;
2289;SDS011;1153;47.986;7.898;2022-12-13T00:47:27;23.83;;;10.77;;
2289;SDS011;1153;47.986;7.898;2022-12-13T00:49:52;19.30;;;11.20;;
2289;SDS011;1153;47.986;7.898;2022-12-13T00:52:17;36.37;;;13.17;;
2289;SDS011;1153;47.986;7.898;2022-12-13T00:54:42;31.47;;;13.20;;
2289;SDS011;1153;47.986;7.898;2022-12-13T00:57:07;22.30;;;10.97;;
2289;SDS011;1153;47.986;7.898;2022-12-13T00:59:32;22.90;;;10.50;;
2289;SDS011;1153;47.986;7.898;2022-12-13T01:01:58;21.10;;;11.47;;
2289;SDS011;1153;47.986;7.898;2022-12-13T01:04:23;21.27;;;9.40;;
2289;SDS011;1153;47.986;7.898;2022-12-13T01:06:48;27.70;;;11.80;;
2289;SDS011;1153;47.986;7.898;2022-12-13T01:09:16;30.03;;;11.87;;
2289;SDS011;1153;47.986;7.898;2022-12-13T01:11:42;25.23;;;11.03;;
2289;SDS011;1153;47.986;7.898;2022-12-13T01:14:09;26.00;;;10.00;;
2289;SDS011;1153;47.986;7.898;2022-12-13T01:16:34;20.37;;;8.83;;
2289;SDS011;1153;47.986;7.898;2022-12-13T01:18:59;22.60;;;10.43;;
2289;SDS011;1153;47.986;7.898;2022-12-13T01:21:24;26.17;;;11.27;;
2289;SDS011;1153;47.986;7.898;2022-12-13T01:23:49;22.13;;;10.37;;
2289;SDS011;1153;47.986;7.898;2022-12-13T01:26:15;27.03;;;10.40;;
2289;SDS011;1153;47.986;7.898;2022-12-13T01:28:41;19.77;;;9.50;;
2289;SDS011;1153;47.986;7.898;2022-12-13T01:31:07;25.93;;;10.80;;
2289;SDS011;1153;47.986;7.898;2022-12-13T01:33:33;24.50;;;9.43;;
2289;SDS011;1153;47.986;7.898;2022-12-13T01:36:03;21.50;;;10.80;;
2289;SDS011;1153;47.986;7.898;2022-12-13T01:38:29;25.13;;;10.83;;
2289;SDS011;1153;47.986;7.898;2022-12-13T01:40:54;23.93;;;9.90;;
2289;SDS011;1153;47.986;7.898;2022-12-13T01:46:09;20.40;;;10.00;;
2289;SDS011;1153;47.986;7.898;2022-12-13T01:48:39;28.80;;;10.77;;
2289;SDS011;1153;47.986;7.898;2022-12-13T01:51:06;22.77;;;11.20;;
2289;SDS011;1153;47.986;7.898;2022-12-13T01:53:35;19.27;;;10.83;;
2289;SDS011;1153;47.986;7.898;2022-12-13T01:56:05;18.47;;;9.67;;
2289;SDS011;1153;47.986;7.898;2022-12-13T01:58:32;31.27;;;11.50;;
2289;SDS011;1153;47.986;7.898;2022-12-13T02:00:58;22.27;;;11.27;;
2289;SDS011;1153;47.986;7.898;2022-12-13T02:03:24;23.80;;;10.03;;
2289;SDS011;1153;47.986;7.898;2022-12-13T02:08:14;16.63;;;10.40;;
2289;SDS011;1153;47.986;7.898;2022-12-13T02:10:41;27.07;;;12.20;;
2289;SDS011;1153;47.986;7.898;2022-12-13T02:13:06;21.07;;;10.47;;
2289;SDS011;1153;47.986;7.898;2022-12-13T02:15:35;19.30;;;10.10;;
2289;SDS011;1153;47.986;7.898;2022-12-13T02:31:28;22.23;;;11.10;;
2289;SDS011;1153;47.986;7.898;2022-12-13T02:34:04;25.07;;;10.83;;
2289;SDS011;1153;47.986;7.898;2022-12-13T02:36:45;16.53;;;9.40;;
2289;SDS011;1153;47.986;7.898;2022-12-13T02:39:21;19.07;;;9.73;;
2289;SDS011;1153;47.986;7.898;2022-12-13T02:41:48;20.77;;;9.20;;
2289;SDS011;1153;47.986;7.898;2022-12-13T02:44:20;20.57;;;10.23;;
2289;SDS011;1153;47.986;7.898;2022-12-13T02:47:00;21.90;;;10.13;;
2289;SDS011;1153;47.986;7.898;2022-12-13T02:49:27;31.33;;;10.70;;
2289;SDS011;1153;47.986;7.898;2022-12-13T02:51:53;18.00;;;8.90;;
2289;SDS011;1153;47.986;7.898;2022-12-13T02:54:19;17.43;;;7.90;;
2289;SDS011;1153;47.986;7.898;2022-12-13T02:56:54;15.43;;;7.77;;
2289;SDS011;1153;47.986;7.898;2022-12-13T02:59:19;24.00;;;8.67;;
2289;SDS011;1153;47.986;7.898;2022-12-13T03:04:57;22.97;;;10.90;;
2289;SDS011;1153;47.986;7.898;2022-12-13T03:10:21;12.13;;;6.97;;
2289;SDS011;1153;47.986;7.898;2022-12-13T03:13:07;19.20;;;9.00;;
2289;SDS011;1153;47.986;7.898;2022-12-13T03:15:55;22.57;;;9.60;;
2289;SDS011;1153;47.986;7.898;2022-12-13T03:18:22;12.90;;;6.47;;
2289;SDS011;1153;47.986;7.898;2022-12-13T03:20:57;18.40;;;7.57;;
2289;SDS011;1153;47.986;7.898;2022-12-13T03:23:23;21.10;;;8.07;;
2289;SDS011;1153;47.986;7.898;2022-12-13T03:25:49;12.77;;;7.67;;
2289;SDS011;1153;47.986;7.898;2022-12-13T03:28:15;19.43;;;11.00;;
2289;SDS011;1153;47.986;7.898;2022-12-13T03:30:40;21.97;;;9.20;;
2289;SDS011;1153;47.986;7.898;2022-12-13T03:33:05;17.77;;;9.87;;
2289;SDS011;1153;47.986;7.898;2022-12-13T03:35:30;17.63;;;9.00;;
2289;SDS011;1153;47.986;7.898;2022-12-13T03:37:56;30.50;;;9.87;;
2289;SDS011;1153;47.986;7.898;2022-12-13T03:40:22;17.97;;;8.90;;
2289;SDS011;1153;47.986;7.898;2022-12-13T03:42:47;14.23;;;7.70;;
2289;SDS011;1153;47.986;7.898;2022-12-13T03:45:12;20.47;;;8.27;;
2289;SDS011;1153;47.986;7.898;2022-12-13T03:47:37;20.63;;;9.57;;
2289;SDS011;1153;47.986;7.898;2022-12-13T03:50:03;26.07;;;8.53;;
2289;SDS011;1153;47.986;7.898;2022-12-13T03:52:28;20.00;;;8.67;;
2289;SDS011;1153;47.986;7.898;2022-12-13T03:54:53;17.13;;;8.33;;
2289;SDS011;1153;47.986;7.898;2022-12-13T03:57:18;16.43;;;7.30;;
2289;SDS011;1153;47.986;7.898;2022-12-13T03:59:44;19.47;;;10.37;;
2289;SDS011;1153;47.986;7.898;2022-12-13T04:02:09;18.37;;;8.97;;
2289;SDS011;1153;47.986;7.898;2022-12-13T04:04:34;23.80;;;10.60;;
2289;SDS011;1153;47.986;7.898;2022-12-13T04:06:59;17.80;;;9.23;;
2289;SDS011;1153;47.986;7.898;2022-12-13T04:09:24;16.97;;;8.47;;
2289;SDS011;1153;47.986;7.898;2022-12-13T04:11:50;24.20;;;10.60;;
2289;SDS011;1153;47.986;7.898;2022-12-13T04:14:34;22.30;;;8.33;;
2289;SDS011;1153;47.986;7.898;2022-12-13T04:16:59;14.10;;;7.37;;
2289;SDS011;1153;47.986;7.898;2022-12-13T04:19:24;33.40;;;11.00;;
2289;SDS011;1153;47.986;7.898;2022-12-13T04:21:50;14.83;;;8.07;;
2289;SDS011;1153;47.986;7.898;2022-12-13T04:24:15;21.10;;;10.10;;
2289;SDS011;1153;47.986;7.898;2022-12-13T04:26:40;25.13;;;10.03;;
2289;SDS011;1153;47.986;7.898;2022-12-13T04:29:06;25.07;;;9.13;;
2289;SDS011;1153;47.986;7.898;2022-12-13T04:31:31;30.97;;;11.40;;
2289;SDS011;1153;47.986;7.898;2022-12-13T04:33:56;34.17;;;10.33;;
2289;SDS011;1153;47.986;7.898;2022-12-13T04:36:21;50.07;;;13.77;;
2289;SDS011;1153;47.986;7.898;2022-12-13T04:38:46;30.97;;;13.13;;
2289;SDS011;1153;47.986;7.898;2022-12-13T04:41:15;30.47;;;11.70;;
2289;SDS011;1153;47.986;7.898;2022-12-13T04:43:41;32.83;;;11.57;;
2289;SDS011;1153;47.986;7.898;2022-12-13T04:46:06;38.23;;;13.20;;
2289;SDS011;1153;47.986;7.898;2022-12-13T04:48:32;29.37;;;11.90;;
2289;SDS011;1153;47.986;7.898;2022-12-13T04:50:58;26.23;;;11.03;;
2289;SDS011;1153;47.986;7.898;2022-12-13T04:53:24;33.97;;;13.83;;
2289;SDS011;1153;47.986;7.898;2022-12-13T04:55:49;33.50;;;11.93;;
2289;SDS011;1153;47.986;7.898;2022-12-13T04:58:14;32.13;;;14.77;;
2289;SDS011;1153;47.986;7.898;2022-12-13T05:00:39;26.63;;;11.50;;
2289;SDS011;1153;47.986;7.898;2022-12-13T05:03:05;34.77;;;13.30;;
2289;SDS011;1153;47.986;7.898;2022-12-13T05:05:30;35.97;;;13.00;;
2289;SDS011;1153;47.986;7.898;2022-12-13T05:07:55;40.77;;;13.37;;
2289;SDS011;1153;47.986;7.898;2022-12-13T05:10:20;35.13;;;12.50;;
2289;SDS011;1153;47.986;7.898;2022-12-13T05:12:46;38.10;;;12.37;;
2289;SDS011;1153;47.986;7.898;2022-12-13T05:15:11;38.63;;;12.83;;
2289;SDS011;1153;47.986;7.898;2022-12-13T05:17:36;32.30;;;12.73;;
2289;SDS011;1153;47.986;7.898;2022-12-13T05:20:02;40.20;;;11.80;;
2289;SDS011;1153;47.986;7.898;2022-12-13T05:22:27;33.07;;;12.60;;
2289;SDS011;1153;47.986;7.898;2022-12-13T05:27:22;27.50;;;12.53;;
2289;SDS011;1153;47.986;7.898;2022-12-13T05:29:47;34.07;;;14.30;;
2289;SDS011;1153;47.986;7.898;2022-12-13T05:32:12;34.40;;;14.37;;
2289;SDS011;1153;47.986;7.898;2022-12-13T05:34:38;40.73;;;15.00;;
2289;SDS011;1153;47.986;7.898;2022-12-13T05:37:03;39.87;;;14.90;;
2289;SDS011;1153;47.986;7.898;2022-12-13T05:39:28;30.93;;;13.17;;
2289;SDS011;1153;47.986;7.898;2022-12-13T05:41:53;39.87;;;12.37;;
2289;SDS011;1153;47.986;7.898;2022-12-13T05:44:19;23.03;;;10.37;;
2289;SDS011;1153;47.986;7.898;2022-12-13T05:46:45;13.47;;;7.13;;
2289;SDS011;1153;47.986;7.898;2022-12-13T05:49:10;21.43;;;8.17;;
2289;SDS011;1153;47.986;7.898;2022-12-13T05:51:35;19.33;;;9.10;;
2289;SDS011;1153;47.986;7.898;2022-12-13T05:54:00;20.73;;;9.47;;
2289;SDS011;1153;47.986;7.898;2022-12-13T05:56:25;17.90;;;9.13;;
2289;SDS011;1153;47.986;7.898;2022-12-13T05:58:51;20.97;;;10.50;;
2289;SDS011;1153;47.986;7.898;2022-12-13T06:01:18;23.03;;;9.53;;
2289;SDS011;1153;47.986;7.898;2022-12-13T06:03:43;15.13;;;9.17;;
2289;SDS011;1153;47.986;7.898;2022-12-13T06:06:09;21.70;;;9.23;;
2289;SDS011;1153;47.986;7.898;2022-12-13T06:08:34;26.60;;;10.50;;
2289;SDS011;1153;47.986;7.898;2022-12-13T06:11:00;24.13;;;10.90;;
2289;SDS011;1153;47.986;7.898;2022-12-13T06:13:26;33.70;;;12.97;;
2289;SDS011;1153;47.986;7.898;2022-12-13T06:15:51;29.97;;;11.30;;
2289;SDS011;1153;47.986;7.898;2022-12-13T06:18:16;27.57;;;11.40;;
2289;SDS011;1153;47.986;7.898;2022-12-13T06:20:41;30.83;;;13.10;;
2289;SDS011;1153;47.986;7.898;2022-12-13T06:23:07;27.53;;;12.30;;
2289;SDS011;1153;47.986;7.898;2022-12-13T06:25:32;34.57;;;13.80;;
2289;SDS011;1153;47.986;7.898;2022-12-13T06:27:58;33.77;;;13.97;;
2289;SDS011;1153;47.986;7.898;2022-12-13T06:30:23;47.90;;;15.00;;
2289;SDS011;1153;47.986;7.898;2022-12-13T06:32:48;35.50;;;14.30;;
2289;SDS011;1153;47.986;7.898;2022-12-13T06:35:14;36.50;;;13.37;;
2289;SDS011;1153;47.986;7.898;2022-12-13T06:37:39;41.17;;;13.40;;
2289;SDS011;1153;47.986;7.898;2022-12-13T06:40:04;37.37;;;14.77;;
2289;SDS011;1153;47.986;7.898;2022-12-13T06:42:30;40.40;;;13.70;;
2289;SDS011;1153;47.986;7.898;2022-12-13T06:44:55;48.97;;;14.33;;
2289;SDS011;1153;47.986;7.898;2022-12-13T06:47:20;43.83;;;14.60;;
2289;SDS011;1153;47.986;7.898;2022-12-13T06:49:46;51.17;;;15.23;;
2289;SDS011;1153;47.986;7.898;2022-12-13T06:52:11;38.30;;;14.33;;
2289;SDS011;1153;47.986;7.898;2022-12-13T06:54:37;45.10;;;17.50;;
2289;SDS011;1153;47.986;7.898;2022-12-13T06:57:02;43.40;;;14.77;;
2289;SDS011;1153;47.986;7.898;2022-12-13T06:59:27;30.03;;;13.03;;
2289;SDS011;1153;47.986;7.898;2022-12-13T07:01:53;40.73;;;14.40;;
2289;SDS011;1153;47.986;7.898;2022-12-13T07:04:18;39.67;;;15.37;;
2289;SDS011;1153;47.986;7.898;2022-12-13T07:06:43;32.90;;;13.37;;
2289;SDS011;1153;47.986;7.898;2022-12-13T07:09:08;35.00;;;15.37;;
2289;SDS011;1153;47.986;7.898;2022-12-13T07:11:33;39.67;;;14.60;;
2289;SDS011;1153;47.986;7.898;2022-12-13T07:13:59;46.73;;;13.77;;
2289;SDS011;1153;47.986;7.898;2022-12-13T07:16:24;46.80;;;16.33;;
2289;SDS011;1153;47.986;7.898;2022-12-13T07:18:56;41.03;;;12.90;;
2289;SDS011;1153;47.986;7.898;2022-12-13T07:21:22;35.77;;;13.20;;
2289;SDS011;1153;47.986;7.898;2022-12-13T07:23:47;40.47;;;14.20;;
2289;SDS011;1153;47.986;7.898;2022-12-13T07:26:12;32.70;;;12.17;;
2289;SDS011;1153;47.986;7.898;2022-12-13T07:28:38;37.10;;;15.70;;
2289;SDS011;1153;47.986;7.898;2022-12-13T07:31:04;43.37;;;15.20;;
2289;SDS011;1153;47.986;7.898;2022-12-13T07:33:30;39.33;;;15.53;;
2289;SDS011;1153;47.986;7.898;2022-12-13T07:36:06;46.67;;;14.83;;
2289;SDS011;1153;47.986;7.898;2022-12-13T07:38:35;45.90;;;13.40;;
2289;SDS011;1153;47.986;7.898;2022-12-13T07:41:00;39.90;;;14.93;;
2289;SDS011;1153;47.986;7.898;2022-12-13T07:43:26;37.73;;;16.33;;
2289;SDS011;1153;47.986;7.898;2022-12-13T07:45:51;46.43;;;16.33;;
2289;SDS011;1153;47.986;7.898;2022-12-13T07:48:17;17.90;;;9.17;;
2289;SDS011;1153;47.986;7.898;2022-12-13T07:50:42;33.47;;;12.03;;
2289;SDS011;1153;47.986;7.898;2022-12-13T07:53:08;41.50;;;16.03;;
2289;SDS011;1153;47.986;7.898;2022-12-13T07:55:33;65.67;;;18.50;;
2289;SDS011;1153;47.986;7.898;2022-12-13T07:58:03;51.70;;;15.30;;
2289;SDS011;1153;47.986;7.898;2022-12-13T08:00:28;37.60;;;14.03;;
2289;SDS011;1153;47.986;7.898;2022-12-13T08:02:53;36.20;;;14.50;;
2289;SDS011;1153;47.986;7.898;2022-12-13T08:05:18;40.90;;;15.67;;
2289;SDS011;1153;47.986;7.898;2022-12-13T08:07:44;46.43;;;16.60;;
2289;SDS011;1153;47.986;7.898;2022-12-13T08:10:09;41.37;;;15.60;;
2289;SDS011;1153;47.986;7.898;2022-12-13T08:12:34;56.00;;;16.60;;
2289;SDS011;1153;47.986;7.898;2022-12-13T08:14:59;42.70;;;16.30;;
2289;SDS011;1153;47.986;7.898;2022-12-13T08:17:24;35.00;;;13.90;;
2289;SDS011;1153;47.986;7.898;2022-12-13T08:19:50;38.57;;;16.07;;
2289;SDS011;1153;47.986;7.898;2022-12-13T08:22:15;62.67;;;17.93;;
2289;SDS011;1153;47.986;7.898;2022-12-13T08:24:40;59.17;;;18.83;;
2289;SDS011;1153;47.986;7.898;2022-12-13T08:27:05;35.93;;;16.63;;
2289;SDS011;1153;47.986;7.898;2022-12-13T08:29:31;46.97;;;18.00;;
2289;SDS011;1153;47.986;7.898;2022-12-13T08:31:56;45.47;;;16.10;;
2289;SDS011;1153;47.986;7.898;2022-12-13T08:34:22;51.00;;;17.47;;
2289;SDS011;1153;47.986;7.898;2022-12-13T08:36:47;56.40;;;20.37;;
2289;SDS011;1153;47.986;7.898;2022-12-13T08:39:12;55.20;;;18.43;;
2289;SDS011;1153;47.986;7.898;2022-12-13T08:41:37;43.43;;;17.30;;
2289;SDS011;1153;47.986;7.898;2022-12-13T08:44:02;44.80;;;17.53;;
2289;SDS011;1153;47.986;7.898;2022-12-13T08:46:27;48.63;;;19.87;;
2289;SDS011;1153;47.986;7.898;2022-12-13T08:48:53;43.83;;;14.63;;
2289;SDS011;1153;47.986;7.898;2022-12-13T08:51:18;44.83;;;19.03;;
2289;SDS011;1153;47.986;7.898;2022-12-13T08:53:47;44.13;;;18.73;;
2289;SDS011;1153;47.986;7.898;2022-12-13T08:56:13;43.63;;;17.73;;
2289;SDS011;1153;47.986;7.898;2022-12-13T08:58:39;50.13;;;18.43;;
2289;SDS011;1153;47.986;7.898;2022-12-13T09:01:07;33.80;;;15.47;;
2289;SDS011;1153;47.986;7.898;2022-12-13T09:03:33;41.40;;;15.90;;
2289;SDS011;1153;47.986;7.898;2022-12-13T09:06:05;47.17;;;17.80;;
2289;SDS011;1153;47.986;7.898;2022-12-13T09:08:31;46.13;;;16.40;;
2289;SDS011;1153;47.986;7.898;2022-12-13T09:10:57;46.63;;;17.30;;
2289;SDS011;1153;47.986;7.898;2022-12-13T09:13:22;49.73;;;19.00;;
2289;SDS011;1153;47.986;7.898;2022-12-13T09:15:47;49.97;;;16.67;;
2289;SDS011;1153;47.986;7.898;2022-12-13T09:18:13;44.50;;;17.00;;
2289;SDS011;1153;47.986;7.898;2022-12-13T09:20:38;48.33;;;17.07;;
2289;SDS011;1153;47.986;7.898;2022-12-13T09:23:05;45.73;;;16.70;;
2289;SDS011;1153;47.986;7.898;2022-12-13T09:25:30;45.23;;;16.27;;
2289;SDS011;1153;47.986;7.898;2022-12-13T09:27:57;42.13;;;16.17;;
2289;SDS011;1153;47.986;7.898;2022-12-13T09:30:22;37.47;;;15.77;;
2289;SDS011;1153;47.986;7.898;2022-12-13T09:32:47;39.47;;;16.30;;
2289;SDS011;1153;47.986;7.898;2022-12-13T09:35:14;43.23;;;15.10;;
2289;SDS011;1153;47.986;7.898;2022-12-13T09:37:39;45.07;;;16.30;;
2289;SDS011;1153;47.986;7.898;2022-12-13T09:40:05;44.00;;;17.03;;
2289;SDS011;1153;47.986;7.898;2022-12-13T09:42:30;43.43;;;18.10;;
2289;SDS011;1153;47.986;7.898;2022-12-13T09:44:58;45.10;;;17.90;;
2289;SDS011;1153;47.986;7.898;2022-12-13T09:47:27;47.63;;;16.80;;
2289;SDS011;1153;47.986;7.898;2022-12-13T09:49:53;52.77;;;18.10;;
2289;SDS011;1153;47.986;7.898;2022-12-13T09:52:18;38.67;;;15.37;;
2289;SDS011;1153;47.986;7.898;2022-12-13T09:54:45;43.87;;;16.93;;
2289;SDS011;1153;47.986;7.898;2022-12-13T09:57:15;48.50;;;18.47;;
2289;SDS011;1153;47.986;7.898;2022-12-13T09:59:41;44.80;;;17.60;;
2289;SDS011;1153;47.986;7.898;2022-12-13T10:02:13;42.17;;;17.77;;
2289;SDS011;1153;47.986;7.898;2022-12-13T10:04:39;47.50;;;16.50;;
2289;SDS011;1153;47.986;7.898;2022-12-13T10:07:09;42.70;;;17.93;;
2289;SDS011;1153;47.986;7.898;2022-12-13T10:09:37;37.67;;;16.93;;
2289;SDS011;1153;47.986;7.898;2022-12-13T10:12:03;45.23;;;17.77;;
2289;SDS011;1153;47.986;7.898;2022-12-13T10:14:29;42.13;;;15.60;;
2289;SDS011;1153;47.986;7.898;2022-12-13T10:16:58;39.20;;;14.00;;
2289;SDS011;1153;47.986;7.898;2022-12-13T10:19:27;45.83;;;17.33;;
2289;SDS011;1153;47.986;7.898;2022-12-13T10:21:54;41.03;;;15.23;;
2289;SDS011;1153;47.986;7.898;2022-12-13T10:24:23;43.93;;;15.30;;
2289;SDS011;1153;47.986;7.898;2022-12-13T10:26:57;28.90;;;14.13;;
2289;SDS011;1153;47.986;7.898;2022-12-13T10:29:33;36.80;;;15.33;;
2289;SDS011;1153;47.986;7.898;2022-12-13T10:31:58;21.30;;;8.00;;
2289;SDS011;1153;47.986;7.898;2022-12-13T10:34:24;44.20;;;16.57;;
2289;SDS011;1153;47.986;7.898;2022-12-13T10:36:51;40.93;;;16.80;;
2289;SDS011;1153;47.986;7.898;2022-12-13T10:39:18;40.17;;;16.40;;
2289;SDS011;1153;47.986;7.898;2022-12-13T10:42:03;48.37;;;17.20;;
2289;SDS011;1153;47.986;7.898;2022-12-13T10:44:28;41.50;;;17.17;;
2289;SDS011;1153;47.986;7.898;2022-12-13T10:49:26;44.03;;;14.37;;
2289;SDS011;1153;47.986;7.898;2022-12-13T10:51:52;42.63;;;17.80;;
2289;SDS011;1153;47.986;7.898;2022-12-13T10:54:26;37.30;;;16.10;;
2289;SDS011;1153;47.986;7.898;2022-12-13T10:56:52;34.30;;;15.33;;
2289;SDS011;1153;47.986;7.898;2022-12-13T11:01:49;30.23;;;13.00;;
2289;SDS011;1153;47.986;7.898;2022-12-13T11:06:46;50.67;;;18.57;;
2289;SDS011;1153;47.986;7.898;2022-12-13T11:09:31;29.23;;;14.10;;
2289;SDS011;1153;47.986;7.898;2022-12-13T11:11:57;38.40;;;14.93;;
2289;SDS011;1153;47.986;7.898;2022-12-13T11:14:25;40.33;;;15.47;;
2289;SDS011;1153;47.986;7.898;2022-12-13T11:16:58;33.47;;;15.20;;
2289;SDS011;1153;47.986;7.898;2022-12-13T11:19:25;36.07;;;15.30;;
2289;SDS011;1153;47.986;7.898;2022-12-13T11:21:51;42.70;;;16.33;;
2289;SDS011;1153;47.986;7.898;2022-12-13T11:24:23;27.87;;;13.53;;
2289;SDS011;1153;47.986;7.898;2022-12-13T11:26:53;39.27;;;13.67;;
2289;SDS011;1153;47.986;7.898;2022-12-13T11:29:30;42.40;;;17.13;;
2289;SDS011;1153;47.986;7.898;2022-12-13T11:37:22;37.50;;;14.37;;
2289;SDS011;1153;47.986;7.898;2022-12-13T11:39:51;32.77;;;14.93;;
2289;SDS011;1153;47.986;7.898;2022-12-13T11:42:19;44.17;;;15.77;;
2289;SDS011;1153;47.986;7.898;2022-12-13T11:45:04;40.67;;;14.23;;
2289;SDS011;1153;47.986;7.898;2022-12-13T11:47:36;42.87;;;15.47;;
2289;SDS011;1153;47.986;7.898;2022-12-13T11:50:05;42.07;;;16.40;;
2289;SDS011;1153;47.986;7.898;2022-12-13T11:52:43;37.10;;;13.53;;
2289;SDS011;1153;47.986;7.898;2022-12-13T11:55:18;35.27;;;14.87;;
2289;SDS011;1153;47.986;7.898;2022-12-13T11:57:46;37.53;;;13.67;;
2289;SDS011;1153;47.986;7.898;2022-12-13T12:02:44;34.13;;;14.07;;
2289;SDS011;1153;47.986;7.898;2022-12-13T12:05:22;39.60;;;14.80;;
2289;SDS011;1153;47.986;7.898;2022-12-13T12:07:50;37.50;;;15.87;;
2289;SDS011;1153;47.986;7.898;2022-12-13T12:12:44;22.87;;;11.77;;
2289;SDS011;1153;47.986;7.898;2022-12-13T12:15:20;33.97;;;14.33;;
2289;SDS011;1153;47.986;7.898;2022-12-13T12:17:46;33.90;;;14.57;;
2289;SDS011;1153;47.986;7.898;2022-12-13T12:20:13;39.50;;;15.77;;
2289;SDS011;1153;47.986;7.898;2022-12-13T12:22:44;39.10;;;16.20;;
2289;SDS011;1153;47.986;7.898;2022-12-13T12:25:16;41.47;;;14.13;;
2289;SDS011;1153;47.986;7.898;2022-12-13T12:33:16;42.10;;;16.57;;
2289;SDS011;1153;47.986;7.898;2022-12-13T12:43:32;51.47;;;17.20;;
2289;SDS011;1153;47.986;7.898;2022-12-13T12:46:04;34.57;;;14.57;;
2289;SDS011;1153;47.986;7.898;2022-12-13T12:48:35;42.20;;;16.60;;
2289;SDS011;1153;47.986;7.898;2022-12-13T12:51:09;40.47;;;15.00;;
2289;SDS011;1153;47.986;7.898;2022-12-13T12:53:50;34.83;;;14.10;;
2289;SDS011;1153;47.986;7.898;2022-12-13T13:03:56;34.53;;;15.67;;
2289;SDS011;1153;47.986;7.898;2022-12-13T13:06:23;30.53;;;13.80;;
2289;SDS011;1153;47.986;7.898;2022-12-13T13:08:54;40.93;;;16.50;;
2289;SDS011;1153;47.986;7.898;2022-12-13T13:11:23;28.57;;;11.90;;
2289;SDS011;1153;47.986;7.898;2022-12-13T13:14:21;41.20;;;15.60;;
2289;SDS011;1153;47.986;7.898;2022-12-13T13:16:49;34.17;;;15.10;;
2289;SDS011;1153;47.986;7.898;2022-12-13T13:21:55;40.87;;;15.87;;
2289;SDS011;1153;47.986;7.898;2022-12-13T13:24:22;35.37;;;15.50;;
2289;SDS011;1153;47.986;7.898;2022-12-13T13:31:53;40.43;;;15.17;;
2289;SDS011;1153;47.986;7.898;2022-12-13T13:34:22;37.33;;;15.67;;
2289;SDS011;1153;47.986;7.898;2022-12-13T13:36:48;42.13;;;16.50;;
2289;SDS011;1153;47.986;7.898;2022-12-13T13:39:17;35.67;;;17.00;;
2289;SDS011;1153;47.986;7.898;2022-12-13T13:44:34;36.83;;;15.03;;
2289;SDS011;1153;47.986;7.898;2022-12-13T13:57:31;35.47;;;15.50;;
2289;SDS011;1153;47.986;7.898;2022-12-13T14:00:16;41.60;;;17.87;;
2289;SDS011;1153;47.986;7.898;2022-12-13T14:10:41;42.80;;;16.90;;
2289;SDS011;1153;47.986;7.898;2022-12-13T14:23:44;47.33;;;17.67;;
2289;SDS011;1153;47.986;7.898;2022-12-13T14:26:18;35.83;;;15.37;;
2289;SDS011;1153;47.986;7.898;2022-12-13T14:31:19;31.10;;;14.10;;
2289;SDS011;1153;47.986;7.898;2022-12-13T14:33:44;37.77;;;15.50;;
2289;SDS011;1153;47.986;7.898;2022-12-13T14:36:13;29.87;;;13.13;;
2289;SDS011;1153;47.986;7.898;2022-12-13T14:38:39;28.50;;;14.03;;
2289;SDS011;1153;47.986;7.898;2022-12-13T14:41:04;32.33;;;13.80;;
2289;SDS011;1153;47.986;7.898;2022-12-13T14:43:33;30.37;;;13.80;;
2289;SDS011;1153;47.986;7.898;2022-12-13T14:45:59;30.10;;;14.10;;
2289;SDS011;1153;47.986;7.898;2022-12-13T14:48:25;30.57;;;13.47;;
2289;SDS011;1153;47.986;7.898;2022-12-13T14:50:52;36.07;;;13.93;;
2289;SDS011;1153;47.986;7.898;2022-12-13T14:53:27;28.90;;;12.87;;
2289;SDS011;1153;47.986;7.898;2022-12-13T14:56:10;32.90;;;14.10;;
2289;SDS011;1153;47.986;7.898;2022-12-13T14:58:36;28.93;;;12.37;;
2289;SDS011;1153;47.986;7.898;2022-12-13T15:01:02;27.37;;;12.80;;
2289;SDS011;1153;47.986;7.898;2022-12-13T15:03:27;31.60;;;14.17;;
2289;SDS011;1153;47.986;7.898;2022-12-13T15:05:55;30.77;;;15.07;;
2289;SDS011;1153;47.986;7.898;2022-12-13T15:08:20;31.40;;;15.00;;
2289;SDS011;1153;47.986;7.898;2022-12-13T15:10:47;35.43;;;13.77;;
2289;SDS011;1153;47.986;7.898;2022-12-13T15:13:22;31.73;;;13.97;;
2289;SDS011;1153;47.986;7.898;2022-12-13T15:15:51;41.40;;;14.00;;
2289;SDS011;1153;47.986;7.898;2022-12-13T15:18:23;29.43;;;13.03;;
2289;SDS011;1153;47.986;7.898;2022-12-13T15:20:52;28.80;;;15.23;;
2289;SDS011;1153;47.986;7.898;2022-12-13T15:25:47;26.93;;;14.60;;
2289;SDS011;1153;47.986;7.898;2022-12-13T15:28:14;38.10;;;13.90;;
2289;SDS011;1153;47.986;7.898;2022-12-13T15:30:39;28.33;;;14.00;;
2289;SDS011;1153;47.986;7.898;2022-12-13T15:33:05;32.77;;;13.63;;
2289;SDS011;1153;47.986;7.898;2022-12-13T15:35:31;34.93;;;14.83;;
2289;SDS011;1153;47.986;7.898;2022-12-13T15:37:58;31.50;;;14.40;;
2289;SDS011;1153;47.986;7.898;2022-12-13T15:40:23;35.93;;;15.27;;
2289;SDS011;1153;47.986;7.898;2022-12-13T15:42:48;28.40;;;13.93;;
2289;SDS011;1153;47.986;7.898;2022-12-13T15:45:22;42.00;;;16.13;;
2289;SDS011;1153;47.986;7.898;2022-12-13T15:47:48;30.73;;;16.13;;
2289;SDS011;1153;47.986;7.898;2022-12-13T15:53:00;37.93;;;15.60;;
2289;SDS011;1153;47.986;7.898;2022-12-13T15:55:26;36.37;;;14.43;;
2289;SDS011;1153;47.986;7.898;2022-12-13T15:57:56;35.13;;;15.70;;
2289;SDS011;1153;47.986;7.898;2022-12-13T16:00:23;32.97;;;15.60;;
2289;SDS011;1153;47.986;7.898;2022-12-13T16:02:55;34.13;;;16.70;;
2289;SDS011;1153;47.986;7.898;2022-12-13T16:05:26;41.63;;;16.00;;
2289;SDS011;1153;47.986;7.898;2022-12-13T16:07:51;39.67;;;16.63;;
2289;SDS011;1153;47.986;7.898;2022-12-13T16:10:17;42.30;;;19.30;;
2289;SDS011;1153;47.986;7.898;2022-12-13T16:12:47;45.20;;;18.20;;
2289;SDS011;1153;47.986;7.898;2022-12-13T16:15:18;45.23;;;18.30;;
2289;SDS011;1153;47.986;7.898;2022-12-13T16:17:44;50.63;;;19.40;;
2289;SDS011;1153;47.986;7.898;2022-12-13T16:20:13;36.87;;;17.93;;
2289;SDS011;1153;47.986;7.898;2022-12-13T16:22:39;40.83;;;17.40;;
2289;SDS011;1153;47.986;7.898;2022-12-13T16:25:04;35.47;;;16.90;;
2289;SDS011;1153;47.986;7.898;2022-12-13T16:27:29;42.03;;;18.23;;
2289;SDS011;1153;47.986;7.898;2022-12-13T16:29:54;41.90;;;18.83;;
2289;SDS011;1153;47.986;7.898;2022-12-13T16:32:20;38.23;;;16.00;;
2289;SDS011;1153;47.986;7.898;2022-12-13T16:34:45;45.20;;;17.47;;
2289;SDS011;1153;47.986;7.898;2022-12-13T16:37:10;43.70;;;16.63;;
2289;SDS011;1153;47.986;7.898;2022-12-13T16:39:36;40.70;;;16.20;;
2289;SDS011;1153;47.986;7.898;2022-12-13T16:42:02;43.70;;;16.37;;
2289;SDS011;1153;47.986;7.898;2022-12-13T16:44:34;38.93;;;16.80;;